Flight Track Log - Related Links

Times and Time Zones

All times are in EDT time to prevent confusion due to time zone crossing. See the UPS2844 flight status page for this flight to view local times or setup timezone preferences in your user account.

Time Position Orientation Groundspeed Altitude Reporting Facility
EDT Latitude Longitude Course Direction KTS MPH feet Rate Location/Type
Thu 04:19:00 PM 38.1710 -85.7400 289° West 23 26  Level FlightAware ADS-B
Thu 04:19:09 PM 38.1710 -85.7410 270° West 23 26 169 Level FlightAware ADS-B
Thu 04:19:40 PM 38.1710 -85.7420 270° West 26 30 173 Level FlightAware ADS-B
Thu 04:20:24 PM 38.1680 -85.7410 165° South 17 20 188 Level FlightAware ADS-B
Thu 04:20:44 PM 38.1660 -85.7400 159° South 22 25 215 Level FlightAware ADS-B
Thu 04:23:00 PM 38.2401 -86.0782 286° West  Level Estimated
Thu 04:24:00 PM 38.2724 -86.2277 285° West  Level Estimated
Thu 04:25:00 PM 38.3046 -86.3772 285° West  Level Estimated
Thu 04:25:31 PM 38.1850 -85.7480 285° West 171 197 1,100  Level FlightAware ADS-B
Thu 04:25:59 PM 38.2080 -85.7570 343° North 177 204 2,500 2,250 Climbing FlightAware ADS-B
Thu 04:26:19 PM 38.2240 -85.7650 339° North 203 234 2,900 1,167 Climbing FlightAware ADS-B
Thu 04:26:35 PM 38.2370 -85.7750 329° Northwest 225 259 3,200 1,636 Climbing FlightAware ADS-B
Thu 04:27:03 PM 38.2630 -85.7970 326° Northwest 258 297 4,100 2,400 Climbing FlightAware ADS-B
Thu 04:27:15 PM 38.2730 -85.8120 310° West 262 302 4,800 3,000 Climbing FlightAware ADS-B
Thu 04:27:31 PM 38.2780 -85.8350 285° West 270 311 5,500 3,000 Climbing FlightAware ADS-B
Thu 04:28:07 PM 38.2710 -85.8910 261° West 280 322 7,400 3,120 Climbing FlightAware ADS-B
Thu 04:28:21 PM 38.2590 -85.9090 230° Southwest 284 327 8,100 3,143 Climbing FlightAware ADS-B
Thu 04:28:49 PM 38.2300 -85.9410 221° Southwest 291 335 9,600 2,382 Climbing FlightAware ADS-B
Thu 04:29:29 PM 38.1890 -85.9860 221° Southwest 325 374 10,800 1,500 Climbing FlightAware ADS-B
Thu 04:30:09 PM 38.1410 -86.0380 220° Southwest 371 427 11,600 1,412 Climbing FlightAware ADS-B
Thu 04:30:37 PM 38.1090 -86.0910 233° Southwest 384 442 12,400 2,000 Climbing FlightAware ADS-B
Thu 04:30:51 PM 38.1030 -86.1200 255° West 382 440 13,000 2,586 Climbing FlightAware ADS-B
Thu 04:31:35 PM 38.1120 -86.2200 277° West 386 444 14,900 2,512 Climbing FlightAware ADS-B
Thu 04:32:17 PM 38.1240 -86.3130 279° West 393 452 16,600 2,415 Climbing FlightAware ADS-B
Thu 04:32:57 PM 38.1350 -86.4050 279° West 397 457 18,200 2,320 Climbing FlightAware ADS-B
Thu 04:33:32 PM 38.1440 -86.4860 278° West 401 461 19,500 1,098 Climbing FlightAware ADS-B
Thu 04:34:19 PM 38.1540 -86.5800 278° West 402 463 19,700 145 Climbing FlightAware ADS-B
Thu 04:34:55 PM 38.1620 -86.6510 278° West 402 463 19,700 2,925 Level FlightAware ADS-B
Thu 04:35:39 PM 38.1780 -86.7890 278° West 420 483 23,600 3,488 Climbing FlightAware ADS-B
Thu 04:36:21 PM 38.1900 -86.8920 278° West 426 490 24,700 1,575 Climbing FlightAware ADS-B
Thu 04:36:59 PM 38.2010 -86.9890 278° West 431 496 25,700 1,835 Climbing FlightAware ADS-B
Thu 04:37:46 PM 38.2130 -87.1050 278° West 424 488 27,300 1,880 Climbing FlightAware ADS-B
Thu 04:38:22 PM 38.2230 -87.1950 278° West 423 487 28,300 1,737 Climbing FlightAware ADS-B
Thu 04:39:02 PM 38.2330 -87.2920 278° West 419 482 29,500 1,643 Climbing FlightAware ADS-B
Thu 04:39:46 PM 38.2450 -87.4010 278° West 417 480 30,600 1,421 Climbing FlightAware ADS-B
Thu 04:40:18 PM 38.2530 -87.4780 278° West 415 478 31,300 1,135 Climbing FlightAware ADS-B
Thu 04:41:00 PM 38.2640 -87.5800 278° West 417 480 32,000 500 Climbing FlightAware ADS-B
Thu 04:41:42 PM 38.2750 -87.6810 278° West 418 481 32,000  Level FlightAware ADS-B
Thu 04:42:27 PM 38.2860 -87.7890 277° West 414 476 32,000  Level FlightAware ADS-B
Thu 04:43:05 PM 38.2960 -87.8810 278° West 413 475 32,000  Level FlightAware ADS-B
Thu 04:43:48 PM 38.3060 -87.9870 277° West 414 476 32,000  Level FlightAware ADS-B
Thu 04:44:33 PM 38.3170 -88.0940 277° West 414 476 32,000  Level FlightAware ADS-B
Thu 04:45:08 PM 38.3260 -88.1790 278° West 414 476 32,000  Level FlightAware ADS-B
Thu 04:45:50 PM 38.3360 -88.2800 277° West 414 476 32,000  Level FlightAware ADS-B
Thu 04:46:30 PM 38.3460 -88.3780 277° West 415 478 32,000  Level FlightAware ADS-B
Thu 04:47:09 PM 38.3550 -88.4690 277° West 415 478 32,000  Level FlightAware ADS-B
Thu 04:47:47 PM 38.3620 -88.5630 275° West 416 479 32,000  Level FlightAware ADS-B
Thu 04:48:30 PM 38.3670 -88.6690 273° West 416 479 32,000  Level FlightAware ADS-B
Thu 04:49:11 PM 38.3710 -88.7690 273° West 418 481 32,000  Level FlightAware ADS-B
Thu 04:49:44 PM 38.3750 -88.8500 274° West 419 482 32,000  Level FlightAware ADS-B
Thu 04:50:30 PM 38.3800 -88.9640 273° West 420 483 32,000  Level FlightAware ADS-B
Thu 04:51:11 PM 38.3850 -89.0610 274° West 420 483 32,000  Level FlightAware ADS-B
Thu 04:51:55 PM 38.3890 -89.1730 273° West 419 482 32,000  Level FlightAware ADS-B
Thu 04:52:34 PM 38.3930 -89.2670 273° West 419 482 32,000  Level FlightAware ADS-B
Thu 04:53:15 PM 38.3980 -89.3680 274° West 418 481 32,000  Level FlightAware ADS-B
Thu 04:53:44 PM 38.4010 -89.4420 273° West 418 481 32,000  Level FlightAware ADS-B
Thu 04:54:24 PM 38.4040 -89.5350 272° West 420 483 32,000  Level FlightAware ADS-B
Thu 04:55:09 PM 38.4070 -89.6340 272° West 420 483 32,000  Level FlightAware ADS-B
Thu 04:56:01 PM 38.4130 -89.7670 273° West 423 487 32,000  Level FlightAware ADS-B
Thu 04:56:44 PM 38.4180 -89.8890 273° West 423 487 32,000  Level FlightAware ADS-B
Thu 04:57:58 PM 38.4230 -90.0500 272° West 424 488 32,000  Level FlightAware ADS-B
Thu 04:58:35 PM 38.4250 -90.1290 272° West 424 488 32,000  Level FlightAware ADS-B
Thu 04:59:24 PM 38.4280 -90.2330 272° West 424 488 32,000  Level FlightAware ADS-B
Thu 05:00:00 PM 38.4300 -90.3100 272° West 424 488 32,000  Level FlightAware ADS-B
Thu 05:00:41 PM 38.4380 -90.4730 274° West 422 486 32,000  Level FlightAware ADS-B
Thu 05:01:21 PM 38.4410 -90.5580 273° West 422 486 32,000  Level FlightAware ADS-B
Thu 05:01:58 PM 38.4430 -90.6360 272° West 422 486 32,000  Level FlightAware ADS-B
Thu 05:02:58 PM 38.4460 -90.7630 272° West 422 486 32,000  Level FlightAware ADS-B
Thu 05:03:34 PM 38.4480 -90.8400 272° West 422 486 32,000  Level FlightAware ADS-B
Thu 05:04:11 PM 38.4510 -90.9180 273° West 422 486 32,000  Level FlightAware ADS-B
Thu 05:04:59 PM 38.4530 -91.0200 271° West 422 486 32,000  Level FlightAware ADS-B
Thu 05:05:33 PM 38.4550 -91.0920 272° West 422 486 32,000  Level FlightAware ADS-B
Thu 05:06:21 PM 38.4580 -91.1930 272° West 422 486 32,000  Level FlightAware ADS-B
Thu 05:06:57 PM 38.4600 -91.2700 272° West 422 486 32,000  Level FlightAware ADS-B
Thu 05:07:45 PM 38.4630 -91.3710 272° West 422 486 32,000  Level FlightAware ADS-B
Thu 05:08:22 PM 38.4650 -91.4500 272° West 422 486 32,000  Level FlightAware ADS-B
Thu 05:09:11 PM 38.4680 -91.5530 272° West 422 486 32,000  Level FlightAware ADS-B
Thu 05:09:47 PM 38.4700 -91.6300 272° West 422 486 32,000  Level FlightAware ADS-B
Thu 05:10:35 PM 38.4730 -91.7310 272° West 422 486 32,000 508 Level FlightAware ADS-B
Thu 05:13:43 PM 38.4850 -92.4290 271° West 420 483 34,000 524 Climbing FlightAware ADS-B
Thu 05:14:24 PM 38.4870 -92.5210 272° West 420 483 34,000  Level FlightAware ADS-B
Thu 05:15:12 PM 38.4890 -92.6480 271° West 422 486 34,000  Level FlightAware ADS-B
Thu 05:16:17 PM 38.4910 -92.8100 271° West 418 481 34,000  Level FlightAware ADS-B
Thu 05:16:55 PM 38.4920 -92.9020 271° West 420 483 34,000  Level FlightAware ADS-B
Thu 05:17:33 PM 38.4930 -92.9980 271° West 422 486 34,000  Level FlightAware ADS-B
Thu 05:18:13 PM 38.4940 -93.0970 271° West 424 488 34,000  Level FlightAware ADS-B
Thu 05:18:55 PM 38.4950 -93.2000 271° West 424 488 34,000  Level FlightAware ADS-B
Thu 05:19:37 PM 38.4960 -93.3060 271° West 422 486 34,000  Level FlightAware ADS-B
Thu 05:20:19 PM 38.4970 -93.4110 271° West 421 484 34,000  Level FlightAware ADS-B
Thu 05:21:01 PM 38.4980 -93.5160 271° West 421 484 34,000  Level FlightAware ADS-B
Thu 05:21:46 PM 38.4980 -93.6260 270° West 424 488 34,000  Level FlightAware ADS-B
Thu 05:22:28 PM 38.4990 -93.7330 271° West 428 493 34,000  Level FlightAware ADS-B
Thu 05:23:08 PM 38.4990 -93.8320 270° West 426 490 34,000  Level FlightAware ADS-B
Thu 05:23:50 PM 38.5000 -93.9360 271° West 427 491 34,000  Level FlightAware ADS-B
Thu 05:24:32 PM 38.5050 -94.0390 274° West 424 488 34,000  Level FlightAware ADS-B
Thu 05:25:14 PM 38.5190 -94.1470 279° West 424 488 34,000  Level FlightAware ADS-B
Thu 05:25:56 PM 38.5330 -94.2490 280° West 425 489 34,000  Level FlightAware ADS-B
Thu 05:26:10 PM 38.5375 -94.2843 279° West 425 489 34,000  Level FlightAware ADS-B
Thu 05:26:41 PM 38.5477 -94.3610 280° West 426 490 34,000  Level FlightAware ADS-B
Thu 05:27:12 PM 38.5575 -94.4371 279° West 426 490 34,000  Level FlightAware ADS-B
Thu 05:27:42 PM 38.5674 -94.5134 279° West 427 491 34,000  Level FlightAware ADS-B
Thu 05:28:13 PM 38.5773 -94.5898 279° West 428 493 34,000  Level FlightAware ADS-B
Thu 05:28:45 PM 38.5874 -94.6685 279° West 429 494 34,000  Level FlightAware ADS-B
Thu 05:29:15 PM 38.5970 -94.7437 279° West 430 495 34,000  Level FlightAware ADS-B
Thu 05:29:45 PM 38.6066 -94.8197 279° West 428 493 34,000  Level FlightAware ADS-B
Thu 05:30:16 PM 38.6162 -94.8959 279° West 428 493 34,000  Level FlightAware ADS-B
Thu 05:30:46 PM 38.6250 -94.9670 279° West 428 493 34,000  Level FlightAware ADS-B
Thu 05:31:26 PM 38.6380 -95.0710 279° West 428 493 34,000  Level FlightAware ADS-B
Thu 05:32:04 PM 38.6500 -95.1650 279° West 429 494 34,000  Level FlightAware ADS-B
Thu 05:32:50 PM 38.6630 -95.2760 279° West 430 495 34,000  Level FlightAware ADS-B
Thu 05:33:33 PM 38.6770 -95.3880 279° West 433 498 34,000  Level FlightAware ADS-B
Thu 05:34:13 PM 38.6900 -95.4910 279° West 434 499 34,000  Level FlightAware ADS-B
Thu 05:34:53 PM 38.7020 -95.5900 279° West 435 501 34,000  Level FlightAware ADS-B
Thu 05:35:29 PM 38.7127 -95.6834 278° West 435 501 34,000  Level FlightAware ADS-B
Thu 05:35:59 PM 38.7217 -95.7602 279° West 435 501 34,000  Level FlightAware ADS-B
Thu 05:36:30 PM 38.7309 -95.8380 279° West 436 502 34,000  Level FlightAware ADS-B
Thu 05:37:01 PM 38.7400 -95.9170 278° West 435 501 34,000  Level FlightAware ADS-B
Thu 05:37:44 PM 38.7530 -96.0267 279° West 438 504 34,000  Level FlightAware ADS-B
Thu 05:38:17 PM 38.7627 -96.1108 278° West 439 505 34,000  Level FlightAware ADS-B
Thu 05:38:47 PM 38.7717 -96.1898 278° West 440 506 34,000  Level FlightAware ADS-B
Thu 05:39:18 PM 38.7805 -96.2671 278° West 440 506 34,000  Level FlightAware ADS-B
Thu 05:39:48 PM 38.7893 -96.3453 278° West 440 506 34,000  Level FlightAware ADS-B
Thu 05:40:18 PM 38.7982 -96.4238 278° West 438 504 34,000  Level FlightAware ADS-B
Thu 05:40:49 PM 38.8070 -96.5024 278° West 438 504 34,000  Level FlightAware ADS-B
Thu 05:41:20 PM 38.8157 -96.5805 278° West 437 503 34,000  Level FlightAware ADS-B
Thu 05:41:50 PM 38.8241 -96.6574 278° West 436 502 34,000  Level FlightAware ADS-B
Thu 05:42:20 PM 38.8326 -96.7343 278° West 436 502 34,000  Level FlightAware ADS-B
Thu 05:42:53 PM 38.8417 -96.8186 278° West 435 501 34,000  Level FlightAware ADS-B
Thu 05:43:24 PM 38.8503 -96.8974 278° West 435 501 34,000  Level FlightAware ADS-B
Thu 05:44:00 PM 38.8603 -96.9901 278° West 435 501 34,000  Level FlightAware ADS-B
Thu 05:44:33 PM 38.8692 -97.0739 278° West 437 503 34,000  Level FlightAware ADS-B
Thu 05:45:09 PM 38.8790 -97.1670 278° West 437 503 34,000  Level FlightAware ADS-B
Thu 05:45:55 PM 38.8900 -97.2730 278° West 438 504 34,000  Level FlightAware ADS-B
Thu 05:46:43 PM 38.9040 -97.4070 278° West 439 505 34,000  Level FlightAware ADS-B
Thu 05:47:19 PM 38.9140 -97.5010 278° West 440 506 34,000  Level FlightAware ADS-B
Thu 05:47:29 PM 38.9165 -97.5275 277° West 441 507 34,000  Level FlightAware ADS-B
Thu 05:48:00 PM 38.9247 -97.6080 277° West 441 507 34,000  Level FlightAware ADS-B
Thu 05:48:31 PM 38.9339 -97.6871 279° West 440 506 34,000  Level FlightAware ADS-B
Thu 05:49:01 PM 38.9452 -97.7639 281° West 440 506 34,000  Level FlightAware ADS-B
Thu 05:49:32 PM 38.9570 -97.8453 281° West 440 506 34,000  Level FlightAware ADS-B
Thu 05:50:03 PM 38.9679 -97.9231 280° West 440 506 34,000  Level FlightAware ADS-B
Thu 05:50:33 PM 38.9785 -97.9998 280° West 440 506 34,000  Level FlightAware ADS-B
Thu 05:51:03 PM 38.9891 -98.0779 280° West 439 505 34,000  Level FlightAware ADS-B
Thu 05:51:33 PM 38.9996 -98.1558 280° West 439 505 34,000  Level FlightAware ADS-B
Thu 05:52:31 PM 39.0194 -98.3030 280° West 439 505 34,000  Level FlightAware ADS-B
Thu 05:53:12 PM 39.0335 -98.4089 280° West 440 506 34,000  Level FlightAware ADS-B
Thu 05:54:09 PM 39.0526 -98.5546 280° West 440 506 34,000  Level FlightAware ADS-B
Thu 05:54:58 PM 39.0650 -98.6580 279° West 439 505 34,000  Level FlightAware ADS-B
Thu 05:55:46 PM 39.0780 -98.7630 279° West 439 505 34,000  Level FlightAware ADS-B
Thu 05:56:28 PM 39.0964 -98.8908 279° West 437 503 34,000  Level Kansas City Center
Thu 05:57:30 PM 39.1175 -99.0439 280° West 435 501 34,000  Level Kansas City Center
Thu 05:58:17 PM 39.1331 -99.1817 278° West 433 498 34,000  Level Denver Center
Thu 05:59:19 PM 39.1517 -99.3300 279° West 439 505 34,000  Level Denver Center
Thu 06:00:21 PM 39.1725 -99.5039 279° West 442 509 34,000  Level Denver Center
Thu 06:01:23 PM 39.1903 -99.6519 279° West 439 505 34,000  Level Denver Center
Thu 06:02:25 PM 39.2117 -99.8258 279° West 441 507 34,000  Level Denver Center
Thu 06:03:27 PM 39.2297 -99.9756 279° West 443 510 34,000  Level Denver Center
Thu 06:04:29 PM 39.2506 -100.1483 279° West 443 510 34,000  Level Denver Center
Thu 06:05:31 PM 39.2664 -100.3003 278° West 446 513 34,000  Level Denver Center
Thu 06:06:34 PM 39.2825 -100.4775 277° West 446 513 34,000  Level Denver Center
Thu 06:12:00 PM 39.3591 -101.3440 277° West 437 503 34,000  Level FlightAware ADS-B
Thu 06:12:35 PM 39.3667 -101.4340 276° West 436 502 34,000  Level FlightAware ADS-B
Thu 06:13:06 PM 39.3734 -101.5140 276° West 439 505 34,000  Level FlightAware ADS-B
Thu 06:13:40 PM 39.3807 -101.6020 276° West 442 509 34,000  Level FlightAware ADS-B
Thu 06:14:13 PM 39.3876 -101.6880 276° West 440 506 34,000  Level FlightAware ADS-B
Thu 06:14:43 PM 39.3953 -101.7670 277° West 437 503 34,000  Level FlightAware ADS-B
Thu 06:15:13 PM 39.4048 -101.8450 279° West 434 499 34,000  Level FlightAware ADS-B
Thu 06:15:44 PM 39.4141 -101.9220 279° West 434 499 34,000  Level FlightAware ADS-B
Thu 06:16:14 PM 39.4232 -102.0000 279° West 435 501 34,000  Level FlightAware ADS-B
Thu 06:16:45 PM 39.4321 -102.0790 278° West 435 501 34,000  Level FlightAware ADS-B
Thu 06:17:15 PM 39.4408 -102.1570 278° West 435 501 34,000  Level FlightAware ADS-B
Thu 06:17:46 PM 39.4496 -102.2370 278° West 437 503 34,000  Level FlightAware ADS-B
Thu 06:18:17 PM 39.4585 -102.3160 278° West 436 502 34,000  Level FlightAware ADS-B
Thu 06:18:47 PM 39.4669 -102.3930 278° West 436 502 34,000  Level FlightAware ADS-B
Thu 06:19:17 PM 39.4755 -102.4710 278° West 437 503 34,000  Level FlightAware ADS-B
Thu 06:19:47 PM 39.4840 -102.5500 278° West 438 504 34,000  Level FlightAware ADS-B
Thu 06:20:20 PM 39.4931 -102.6330 278° West 439 505 34,000  Level FlightAware ADS-B
Thu 06:20:50 PM 39.5014 -102.7120 278° West 440 506 34,000  Level FlightAware ADS-B
Thu 06:21:20 PM 39.5099 -102.7910 278° West 441 507 34,000  Level FlightAware ADS-B
Thu 06:21:51 PM 39.5182 -102.8700 278° West 440 506 34,000  Level FlightAware ADS-B
Thu 06:22:21 PM 39.5266 -102.9500 278° West 436 502 34,000  Level FlightAware ADS-B
Thu 06:22:52 PM 39.5350 -103.0300 278° West 434 499 34,000  Level FlightAware ADS-B
Thu 06:23:23 PM 39.5430 -103.1080 278° West 434 499 34,000  Level FlightAware ADS-B
Thu 06:23:53 PM 39.5511 -103.1860 278° West 437 503 34,000  Level FlightAware ADS-B
Thu 06:24:24 PM 39.5592 -103.2650 278° West 440 506 34,000  Level FlightAware ADS-B
Thu 06:24:54 PM 39.5672 -103.3440 278° West 440 506 34,000  Level FlightAware ADS-B
Thu 06:25:25 PM 39.5753 -103.4240 278° West 437 503 34,000  Level FlightAware ADS-B
Thu 06:25:55 PM 39.5831 -103.5010 278° West 436 502 34,000  Level FlightAware ADS-B
Thu 06:26:25 PM 39.5908 -103.5790 277° West 437 503 34,000  Level FlightAware ADS-B
Thu 06:26:56 PM 39.5988 -103.6600 277° West 439 505 34,000  Level FlightAware ADS-B
Thu 06:27:26 PM 39.6066 -103.7390 277° West 440 506 34,000  Level FlightAware ADS-B
Thu 06:27:56 PM 39.6144 -103.8190 277° West 442 509 34,000  Level FlightAware ADS-B
Thu 06:28:27 PM 39.6221 -103.8990 277° West 444 511 34,000  Level FlightAware ADS-B
Thu 06:28:58 PM 39.6299 -103.9800 277° West 444 511 34,000  Level FlightAware ADS-B
Thu 06:29:28 PM 39.6375 -104.0610 277° West 440 506 34,000  Level FlightAware ADS-B
Thu 06:29:59 PM 39.6451 -104.1410 277° West 436 502 34,000  Level FlightAware ADS-B
Thu 06:30:30 PM 39.6526 -104.2200 277° West 433 498 34,000  Level FlightAware ADS-B
Thu 06:31:00 PM 39.6598 -104.2980 277° West 433 498 34,000  Level FlightAware ADS-B
Thu 06:31:31 PM 39.6672 -104.3770 277° West 433 498 34,000  Level FlightAware ADS-B
Thu 06:32:02 PM 39.6747 -104.4580 277° West 439 505 34,000  Level FlightAware ADS-B
Thu 06:32:33 PM 39.6818 -104.5370 277° West 440 506 34,000  Level FlightAware ADS-B
Thu 06:33:04 PM 39.6891 -104.6190 277° West 437 503 34,000  Level FlightAware ADS-B
Thu 06:33:22 PM 39.6939 -104.6660 278° West 434 499 34,000  Level FlightAware ADS-B
Thu 06:33:53 PM 39.7041 -104.7440 280° West 432 497 34,000  Level FlightAware ADS-B
Thu 06:34:23 PM 39.7146 -104.8200 280° West 432 497 34,000  Level FlightAware ADS-B
Thu 06:34:53 PM 39.7249 -104.8990 280° West 437 503 34,000  Level FlightAware ADS-B
Thu 06:35:24 PM 39.7348 -104.9770 279° West 438 504 34,000  Level FlightAware ADS-B
Thu 06:35:55 PM 39.7451 -105.0590 279° West 437 503 34,000  Level FlightAware ADS-B
Thu 06:36:31 PM 39.7567 -105.1520 279° West 436 502 34,000  Level FlightAware ADS-B
Thu 06:37:02 PM 39.7664 -105.2310 279° West 436 502 34,000  Level FlightAware ADS-B
Thu 06:37:32 PM 39.7760 -105.3100 279° West 436 502 34,000  Level FlightAware ADS-B
Thu 06:38:03 PM 39.7856 -105.3870 279° West 434 499 34,000  Level FlightAware ADS-B
Thu 06:38:33 PM 39.7950 -105.4650 279° West 434 499 34,000  Level FlightAware ADS-B
Thu 06:39:04 PM 39.8046 -105.5440 279° West 433 498 34,000  Level FlightAware ADS-B
Thu 06:39:34 PM 39.8141 -105.6230 279° West 434 499 34,000  Level FlightAware ADS-B
Thu 06:40:05 PM 39.8235 -105.7010 279° West 434 499 34,000  Level FlightAware ADS-B
Thu 06:40:35 PM 39.8330 -105.7800 279° West 436 502 34,000  Level FlightAware ADS-B
Thu 06:41:06 PM 39.8422 -105.8580 279° West 434 499 34,000  Level FlightAware ADS-B
Thu 06:41:37 PM 39.8516 -105.9390 279° West 434 499 34,000  Level FlightAware ADS-B
Thu 06:42:14 PM 39.8630 -106.0360 279° West 437 503 34,000  Level FlightAware ADS-B
Thu 06:42:44 PM 39.8721 -106.1130 279° West 437 503 34,000  Level FlightAware ADS-B
Thu 06:43:16 PM 39.8815 -106.1960 278° West 434 499 34,000  Level FlightAware ADS-B
Thu 06:43:49 PM 39.8913 -106.2800 279° West 432 497 34,000  Level FlightAware ADS-B
Thu 06:44:20 PM 39.9003 -106.3590 278° West 429 494 34,000  Level FlightAware ADS-B
Thu 06:44:51 PM 39.9091 -106.4370 278° West 433 498 34,000  Level FlightAware ADS-B
Thu 06:45:21 PM 39.9180 -106.5150 278° West 434 499 34,000  Level FlightAware ADS-B
Thu 06:45:52 PM 39.9268 -106.5940 278° West 432 497 34,000  Level FlightAware ADS-B
Thu 06:46:24 PM 39.9359 -106.6760 278° West 427 491 34,000  Level FlightAware ADS-B
Thu 06:46:54 PM 39.9443 -106.7540 278° West 426 490 34,000  Level FlightAware ADS-B
Thu 06:47:39 PM 39.9570 -106.8660 278° West 428 493 34,000  Level FlightAware ADS-B
Thu 06:48:19 PM 39.9680 -106.9680 278° West 428 493 34,000  Level FlightAware ADS-B
Thu 06:48:59 PM 39.9790 -107.0690 278° West 429 494 34,000  Level FlightAware ADS-B
Thu 06:49:43 PM 39.9910 -107.1830 278° West 430 495 34,000  Level FlightAware ADS-B
Thu 06:50:16 PM 40.0000 -107.2660 278° West 430 495 34,000  Level FlightAware ADS-B
Thu 06:51:00 PM 40.0120 -107.3780 278° West 428 493 34,000  Level FlightAware ADS-B
Thu 06:51:39 PM 40.0220 -107.4800 277° West 426 490 34,000  Level FlightAware ADS-B
Thu 06:52:23 PM 40.0340 -107.5910 278° West 425 489 34,000  Level FlightAware ADS-B
Thu 06:53:05 PM 40.0450 -107.6980 278° West 425 489 34,000  Level FlightAware ADS-B
Thu 06:53:45 PM 40.0550 -107.8000 277° West 425 489 34,000  Level FlightAware ADS-B
Thu 06:54:31 PM 40.0660 -107.9160 277° West 422 486 34,000  Level FlightAware ADS-B
Thu 06:55:07 PM 40.0720 -108.0080 275° West 422 486 34,000  Level FlightAware ADS-B
Thu 06:55:47 PM 40.0760 -108.1080 273° West 425 489 34,000  Level FlightAware ADS-B
Thu 06:56:28 PM 40.0810 -108.2160 273° West 427 491 34,000  Level FlightAware ADS-B
Thu 06:57:07 PM 40.0850 -108.3160 273° West 426 490 34,000  Level FlightAware ADS-B
Thu 06:57:44 PM 40.0890 -108.4100 273° West 425 489 34,000  Level FlightAware ADS-B
Thu 06:58:21 PM 40.0930 -108.5040 273° West 426 490 34,000  Level FlightAware ADS-B
Thu 06:59:04 PM 40.0980 -108.6140 273° West 425 489 34,000  Level FlightAware ADS-B
Thu 06:59:52 PM 40.1030 -108.7350 273° West 419 482 34,000  Level FlightAware ADS-B
Thu 07:00:32 PM 40.1060 -108.8290 272° West 422 486 34,000  Level FlightAware ADS-B
Thu 07:01:14 PM 40.1110 -108.9380 273° West 426 490 34,000  Level FlightAware ADS-B
Thu 07:01:57 PM 40.1150 -109.0550 273° West 424 488 34,000  Level FlightAware ADS-B
Thu 07:02:44 PM 40.1190 -109.1710 273° West 422 486 34,000  Level FlightAware ADS-B
Thu 07:03:24 PM 40.1230 -109.2650 273° West 423 487 34,000 -444 Level FlightAware ADS-B
Thu 07:04:05 PM 40.1270 -109.3810 273° West 436 502 33,400 -923 Descending FlightAware ADS-B
Thu 07:04:42 PM 40.1300 -109.4740 272° West 436 502 32,800 -1,013 Descending FlightAware ADS-B
Thu 07:05:22 PM 40.1340 -109.5820 273° West 436 502 32,100 -1,047 Descending FlightAware ADS-B
Thu 07:06:08 PM 40.1380 -109.7080 272° West 443 510 31,300 -987 Descending FlightAware ADS-B
Thu 07:06:41 PM 40.1400 -109.7960 272° West 448 516 30,800 -1,013 Descending FlightAware ADS-B
Thu 07:07:25 PM 40.1440 -109.9150 273° West 449 517 30,000 -485 Descending FlightAware ADS-B
Thu 07:08:20 PM 40.1480 -110.0610 272° West 447 514 30,000  Level FlightAware ADS-B
Thu 07:09:06 PM 40.1510 -110.1760 272° West 447 514 30,000  Level FlightAware ADS-B
Thu 07:09:45 PM 40.1500 -110.2770 269° West 446 513 30,000  Level FlightAware ADS-B
Thu 07:10:29 PM 40.1480 -110.4060 269° West 445 512 30,000  Level FlightAware ADS-B
Thu 07:10:52 PM 40.1470 -110.4660 269° West 443 510 30,000 -357 Level FlightAware ADS-B
Thu 07:11:53 PM 40.1460 -110.6210 270° West 436 502 29,500 -1,358 Descending FlightAware ADS-B
Thu 07:12:38 PM 40.1440 -110.7430 269° West 437 503 27,600 -2,571 Descending FlightAware ADS-B
Thu 07:13:38 PM 40.1430 -110.9010 270° West 438 504 25,000 -1,418 Descending FlightAware ADS-B
Thu 07:14:28 PM 40.1410 -111.0140 269° West 438 504 25,000  Level FlightAware ADS-B
Thu 07:15:04 PM 40.1400 -111.0950 269° West 438 504 25,000  Level FlightAware ADS-B
Thu 07:15:41 PM 40.1390 -111.1780 269° West 438 504 25,000  Level FlightAware ADS-B
Thu 07:16:42 PM 40.1370 -111.3160 269° West 438 504 25,000  Level FlightAware ADS-B
Thu 07:17:18 PM 40.1360 -111.3970 269° West 438 504 25,000 -6,207 Level FlightAware ADS-B
Thu 07:18:09 PM 40.1371 -111.5620 271° West 338 389 16,000 -9,153 Descending FlightAware ADS-B
Thu 07:18:17 PM 40.1422 -111.5770 294° West 336 387 16,000 -1,024 Level FlightAware ADS-B
Thu 07:18:50 PM 40.1635 -111.6370 295° West 329 379 15,300 -1,479 Descending FlightAware ADS-B
Thu 07:19:30 PM 40.1959 -111.7060 302° West 330 380 14,200 -1,520 Descending FlightAware ADS-B
Thu 07:20:05 PM 40.2326 -111.7540 315° West 323 372 13,400 -1,182 Descending FlightAware ADS-B
Thu 07:20:36 PM 40.2650 -111.7970 315° West 311 358 12,900 -556 Descending FlightAware ADS-B
Thu 07:20:59 PM 40.2872 -111.8260 315° West 290 334 12,900 -566 Level FlightAware ADS-B
Thu 07:21:29 PM 40.3160 -111.8580 320° Northwest 277 319 12,400 -1,263 Descending FlightAware ADS-B
Thu 07:21:37 PM 40.3245 -111.8670 321° Northwest 277 319 12,100 -1,737 Descending FlightAware ADS-B
Thu 07:22:07 PM 40.3555 -111.8980 323° Northwest 277 319 11,300 -1,277 Descending FlightAware ADS-B
Thu 07:22:24 PM 40.3723 -111.9150 322° Northwest 274 315 11,100 -1,034 Descending FlightAware ADS-B
Thu 07:22:36 PM 40.3856 -111.9270 326° Northwest 269 310 10,800 -1,429 Descending FlightAware ADS-B
Thu 07:22:45 PM 40.3961 -111.9310 344° North 274 315 10,600 -1,224 Descending FlightAware ADS-B
Thu 07:23:25 PM 40.4459 -111.9360 356° North 274 315 9,800 -1,200 Descending FlightAware ADS-B
Thu 07:23:45 PM 40.4702 -111.9380 356° North 262 302 9,400 -973 Descending FlightAware ADS-B
Thu 07:24:02 PM 40.4898 -111.9400 356° North 246 283 9,200 -545 Descending FlightAware ADS-B
Thu 07:24:18 PM 40.5078 -111.9420 355° North 241 277 9,100 -522 Descending FlightAware ADS-B
Thu 07:24:25 PM 40.5146 -111.9430 354° North 235 270 9,000 -261 Descending FlightAware ADS-B
Thu 07:24:41 PM 40.5317 -111.9450 355° North 224 258 9,000 -545 Level FlightAware ADS-B
Thu 07:24:47 PM 40.5380 -111.9460 353° North 224 258 8,800 -1,600 Descending FlightAware ADS-B
Thu 07:24:56 PM 40.5469 -111.9470 355° North 225 259 8,600 -1,364 Descending FlightAware ADS-B
Thu 07:25:09 PM 40.5605 -111.9480 357° North 226 260 8,300 -1,500 Descending FlightAware ADS-B
Thu 07:25:24 PM 40.5759 -111.9500 354° North 225 259 7,900 -1,459 Descending FlightAware ADS-B
Thu 07:25:46 PM 40.5982 -111.9530 354° North 216 249 7,400 -1,297 Descending FlightAware ADS-B
Thu 07:26:01 PM 40.6137 -111.9550 354° North 209 241 7,100 -923 Descending FlightAware ADS-B
Thu 07:26:12 PM 40.6236 -111.9560 356° North 201 231 7,000 -923 Descending FlightAware ADS-B
Thu 07:26:27 PM 40.6377 -111.9570 357° North 194 223 6,700 -1,125 Descending FlightAware ADS-B
Thu 07:26:44 PM 40.6525 -111.9590 354° North 185 213 6,400 -909 Descending FlightAware ADS-B
Thu 07:27:00 PM 40.6653 -111.9610 353° North 170 196 6,200 -833 Descending FlightAware ADS-B
Thu 07:27:20 PM 40.6794 -111.9620 357° North 151 174 5,900 -769 Descending FlightAware ADS-B
Thu 07:27:39 PM 40.6929 -111.9640 354° North 148 170 5,700 -686 Descending FlightAware ADS-B
Thu 07:27:55 PM 40.7039 -111.9650 356° North 154 177 5,500 -833 Descending FlightAware ADS-B
Thu 07:28:15 PM 40.7177 -111.9670 354° North 149 171 5,200 -787 Descending FlightAware ADS-B
Thu 07:28:56 PM 40.7463 -111.9700 355° North 150 173 4,700 -737 Descending FlightAware ADS-B
Thu 07:29:12 PM 40.7571 -111.9710 356° North 150 173 4,500 -727 Descending FlightAware ADS-B
Thu 07:29:29 PM 40.7692 -111.9720 356° North 154 177 4,300 -706 Descending FlightAware ADS-B
Thu 07:31:55 PM 40.8010 -111.9800 343° North 32 37 -1,767 Descending FlightAware ADS-B

Login

Don't have an account? Register now (free) for customized features, flight alerts, and more!